sensor_id;sensor_type;location;lat;lon;timestamp;P1;durP1;ratioP1;P2;durP2;ratioP2
18973;SDS011;9621;48.690;9.466;2024-02-26T00:00:39;5.73;;;3.20;;
18973;SDS011;9621;48.690;9.466;2024-02-26T00:03:06;4.00;;;2.87;;
18973;SDS011;9621;48.690;9.466;2024-02-26T00:05:33;4.23;;;2.67;;
18973;SDS011;9621;48.690;9.466;2024-02-26T00:08:01;5.67;;;3.07;;
18973;SDS011;9621;48.690;9.466;2024-02-26T00:10:28;4.00;;;2.80;;
18973;SDS011;9621;48.690;9.466;2024-02-26T00:12:55;6.40;;;3.90;;
18973;SDS011;9621;48.690;9.466;2024-02-26T00:15:22;7.97;;;3.67;;
18973;SDS011;9621;48.690;9.466;2024-02-26T00:17:49;5.10;;;3.20;;
18973;SDS011;9621;48.690;9.466;2024-02-26T00:20:16;5.03;;;3.20;;
18973;SDS011;9621;48.690;9.466;2024-02-26T00:22:43;4.47;;;3.00;;
18973;SDS011;9621;48.690;9.466;2024-02-26T00:25:12;4.67;;;3.07;;
18973;SDS011;9621;48.690;9.466;2024-02-26T00:27:39;5.00;;;3.20;;
18973;SDS011;9621;48.690;9.466;2024-02-26T00:30:07;3.63;;;3.10;;
18973;SDS011;9621;48.690;9.466;2024-02-26T00:32:34;6.43;;;3.40;;
18973;SDS011;9621;48.690;9.466;2024-02-26T00:35:01;5.63;;;2.80;;
18973;SDS011;9621;48.690;9.466;2024-02-26T00:37:28;6.07;;;3.33;;
18973;SDS011;9621;48.690;9.466;2024-02-26T00:39:55;5.03;;;3.43;;
18973;SDS011;9621;48.690;9.466;2024-02-26T00:42:23;6.23;;;3.30;;
18973;SDS011;9621;48.690;9.466;2024-02-26T00:44:50;3.60;;;2.87;;
18973;SDS011;9621;48.690;9.466;2024-02-26T00:47:17;4.27;;;3.30;;
18973;SDS011;9621;48.690;9.466;2024-02-26T00:49:44;6.40;;;3.17;;
18973;SDS011;9621;48.690;9.466;2024-02-26T00:52:11;10.90;;;6.90;;
18973;SDS011;9621;48.690;9.466;2024-02-26T00:54:38;19.27;;;11.50;;
18973;SDS011;9621;48.690;9.466;2024-02-26T00:57:05;13.67;;;8.20;;
18973;SDS011;9621;48.690;9.466;2024-02-26T00:59:34;7.53;;;4.83;;
18973;SDS011;9621;48.690;9.466;2024-02-26T01:02:01;39.73;;;19.57;;
18973;SDS011;9621;48.690;9.466;2024-02-26T01:04:30;9.63;;;5.80;;
18973;SDS011;9621;48.690;9.466;2024-02-26T01:06:59;13.47;;;7.00;;
18973;SDS011;9621;48.690;9.466;2024-02-26T01:09:26;12.90;;;7.00;;
18973;SDS011;9621;48.690;9.466;2024-02-26T01:11:52;6.57;;;4.37;;
18973;SDS011;9621;48.690;9.466;2024-02-26T01:14:19;5.27;;;3.77;;
18973;SDS011;9621;48.690;9.466;2024-02-26T01:16:48;4.90;;;3.77;;
18973;SDS011;9621;48.690;9.466;2024-02-26T01:19:15;5.83;;;3.50;;
18973;SDS011;9621;48.690;9.466;2024-02-26T01:21:42;4.13;;;2.90;;
18973;SDS011;9621;48.690;9.466;2024-02-26T01:24:08;3.50;;;2.70;;
18973;SDS011;9621;48.690;9.466;2024-02-26T01:26:35;3.40;;;2.67;;
18973;SDS011;9621;48.690;9.466;2024-02-26T01:29:03;7.27;;;2.90;;
18973;SDS011;9621;48.690;9.466;2024-02-26T01:31:30;6.67;;;3.17;;
18973;SDS011;9621;48.690;9.466;2024-02-26T01:33:58;4.37;;;3.10;;
18973;SDS011;9621;48.690;9.466;2024-02-26T01:36:25;3.60;;;2.50;;
18973;SDS011;9621;48.690;9.466;2024-02-26T01:38:52;4.17;;;2.60;;
18973;SDS011;9621;48.690;9.466;2024-02-26T01:41:19;5.10;;;3.07;;
18973;SDS011;9621;48.690;9.466;2024-02-26T01:43:46;4.33;;;3.00;;
18973;SDS011;9621;48.690;9.466;2024-02-26T01:46:14;5.83;;;3.30;;
18973;SDS011;9621;48.690;9.466;2024-02-26T01:48:42;4.07;;;2.80;;
18973;SDS011;9621;48.690;9.466;2024-02-26T01:51:13;4.33;;;2.97;;
18973;SDS011;9621;48.690;9.466;2024-02-26T01:53:42;5.40;;;3.60;;
18973;SDS011;9621;48.690;9.466;2024-02-26T01:56:09;3.50;;;2.47;;
18973;SDS011;9621;48.690;9.466;2024-02-26T01:58:40;3.67;;;2.80;;
18973;SDS011;9621;48.690;9.466;2024-02-26T02:01:07;3.40;;;2.50;;
18973;SDS011;9621;48.690;9.466;2024-02-26T02:03:36;3.70;;;2.43;;
18973;SDS011;9621;48.690;9.466;2024-02-26T02:06:04;3.50;;;2.63;;
18973;SDS011;9621;48.690;9.466;2024-02-26T02:08:33;6.23;;;2.80;;
18973;SDS011;9621;48.690;9.466;2024-02-26T02:11:01;3.23;;;2.50;;
18973;SDS011;9621;48.690;9.466;2024-02-26T02:13:28;6.50;;;3.00;;
18973;SDS011;9621;48.690;9.466;2024-02-26T02:15:55;4.67;;;2.50;;
18973;SDS011;9621;48.690;9.466;2024-02-26T02:18:22;4.30;;;2.70;;
18973;SDS011;9621;48.690;9.466;2024-02-26T02:20:50;4.90;;;2.77;;
18973;SDS011;9621;48.690;9.466;2024-02-26T02:23:25;5.93;;;2.63;;
18973;SDS011;9621;48.690;9.466;2024-02-26T02:25:52;5.10;;;2.73;;
18973;SDS011;9621;48.690;9.466;2024-02-26T02:28:20;3.23;;;2.53;;
18973;SDS011;9621;48.690;9.466;2024-02-26T02:30:47;4.63;;;2.63;;
18973;SDS011;9621;48.690;9.466;2024-02-26T02:33:15;6.17;;;3.20;;
18973;SDS011;9621;48.690;9.466;2024-02-26T02:35:42;3.30;;;3.00;;
18973;SDS011;9621;48.690;9.466;2024-02-26T02:38:11;4.57;;;3.50;;
18973;SDS011;9621;48.690;9.466;2024-02-26T02:40:38;5.10;;;3.30;;
18973;SDS011;9621;48.690;9.466;2024-02-26T02:43:04;4.90;;;3.20;;
18973;SDS011;9621;48.690;9.466;2024-02-26T02:45:31;4.63;;;3.23;;
18973;SDS011;9621;48.690;9.466;2024-02-26T02:47:58;6.17;;;3.40;;
18973;SDS011;9621;48.690;9.466;2024-02-26T02:50:25;5.97;;;3.20;;
18973;SDS011;9621;48.690;9.466;2024-02-26T02:52:54;5.17;;;3.20;;
18973;SDS011;9621;48.690;9.466;2024-02-26T02:55:22;4.20;;;3.20;;
18973;SDS011;9621;48.690;9.466;2024-02-26T02:57:49;4.53;;;3.20;;
18973;SDS011;9621;48.690;9.466;2024-02-26T03:00:16;4.33;;;3.17;;
18973;SDS011;9621;48.690;9.466;2024-02-26T03:02:43;4.90;;;3.50;;
18973;SDS011;9621;48.690;9.466;2024-02-26T03:05:11;4.83;;;3.10;;
18973;SDS011;9621;48.690;9.466;2024-02-26T03:07:38;4.53;;;2.97;;
18973;SDS011;9621;48.690;9.466;2024-02-26T03:10:05;4.93;;;2.97;;
18973;SDS011;9621;48.690;9.466;2024-02-26T03:12:36;5.03;;;3.20;;
18973;SDS011;9621;48.690;9.466;2024-02-26T03:15:03;4.53;;;2.83;;
18973;SDS011;9621;48.690;9.466;2024-02-26T03:17:30;6.47;;;3.50;;
18973;SDS011;9621;48.690;9.466;2024-02-26T03:19:57;5.20;;;3.80;;
18973;SDS011;9621;48.690;9.466;2024-02-26T03:22:24;4.20;;;3.20;;
18973;SDS011;9621;48.690;9.466;2024-02-26T03:24:51;4.43;;;3.13;;
18973;SDS011;9621;48.690;9.466;2024-02-26T03:27:18;4.70;;;3.27;;
18973;SDS011;9621;48.690;9.466;2024-02-26T03:29:46;5.23;;;3.20;;
18973;SDS011;9621;48.690;9.466;2024-02-26T03:32:13;6.10;;;3.67;;
18973;SDS011;9621;48.690;9.466;2024-02-26T03:34:40;4.43;;;3.30;;
18973;SDS011;9621;48.690;9.466;2024-02-26T03:37:07;5.10;;;3.30;;
18973;SDS011;9621;48.690;9.466;2024-02-26T03:39:35;7.17;;;3.70;;
18973;SDS011;9621;48.690;9.466;2024-02-26T03:42:03;6.67;;;3.73;;
18973;SDS011;9621;48.690;9.466;2024-02-26T03:44:30;5.27;;;3.20;;
18973;SDS011;9621;48.690;9.466;2024-02-26T03:46:58;4.97;;;3.50;;
18973;SDS011;9621;48.690;9.466;2024-02-26T03:49:25;6.73;;;3.87;;
18973;SDS011;9621;48.690;9.466;2024-02-26T03:51:52;6.50;;;3.43;;
18973;SDS011;9621;48.690;9.466;2024-02-26T03:54:19;5.63;;;3.63;;
18973;SDS011;9621;48.690;9.466;2024-02-26T03:56:46;5.97;;;3.63;;
18973;SDS011;9621;48.690;9.466;2024-02-26T03:59:13;5.80;;;3.47;;
18973;SDS011;9621;48.690;9.466;2024-02-26T04:01:44;5.60;;;3.50;;
18973;SDS011;9621;48.690;9.466;2024-02-26T04:04:13;5.40;;;3.70;;
18973;SDS011;9621;48.690;9.466;2024-02-26T04:06:43;4.57;;;3.23;;
18973;SDS011;9621;48.690;9.466;2024-02-26T04:09:11;4.40;;;3.37;;
18973;SDS011;9621;48.690;9.466;2024-02-26T04:11:38;6.00;;;4.00;;
18973;SDS011;9621;48.690;9.466;2024-02-26T04:14:05;5.93;;;3.10;;
18973;SDS011;9621;48.690;9.466;2024-02-26T04:16:33;4.70;;;3.57;;
18973;SDS011;9621;48.690;9.466;2024-02-26T04:19:00;5.77;;;3.57;;
18973;SDS011;9621;48.690;9.466;2024-02-26T04:21:29;5.73;;;3.90;;
18973;SDS011;9621;48.690;9.466;2024-02-26T04:23:56;5.53;;;3.80;;
18973;SDS011;9621;48.690;9.466;2024-02-26T04:26:25;5.87;;;3.93;;
18973;SDS011;9621;48.690;9.466;2024-02-26T04:28:52;5.47;;;3.60;;
18973;SDS011;9621;48.690;9.466;2024-02-26T04:31:19;4.60;;;3.60;;
18973;SDS011;9621;48.690;9.466;2024-02-26T04:33:46;4.57;;;3.50;;
18973;SDS011;9621;48.690;9.466;2024-02-26T04:36:13;7.60;;;3.40;;
18973;SDS011;9621;48.690;9.466;2024-02-26T04:38:42;4.93;;;3.20;;
18973;SDS011;9621;48.690;9.466;2024-02-26T04:41:09;4.60;;;3.53;;
18973;SDS011;9621;48.690;9.466;2024-02-26T04:43:37;6.80;;;3.63;;
18973;SDS011;9621;48.690;9.466;2024-02-26T04:46:06;5.80;;;3.47;;
18973;SDS011;9621;48.690;9.466;2024-02-26T04:48:34;4.43;;;2.90;;
18973;SDS011;9621;48.690;9.466;2024-02-26T04:51:01;4.67;;;3.20;;
18973;SDS011;9621;48.690;9.466;2024-02-26T04:53:28;8.10;;;3.80;;
18973;SDS011;9621;48.690;9.466;2024-02-26T04:55:57;4.70;;;3.13;;
18973;SDS011;9621;48.690;9.466;2024-02-26T04:58:23;5.73;;;3.50;;
18973;SDS011;9621;48.690;9.466;2024-02-26T05:00:51;5.10;;;3.50;;
18973;SDS011;9621;48.690;9.466;2024-02-26T05:03:18;3.50;;;2.93;;
18973;SDS011;9621;48.690;9.466;2024-02-26T05:05:45;6.70;;;3.10;;
18973;SDS011;9621;48.690;9.466;2024-02-26T05:08:12;3.67;;;3.13;;
18973;SDS011;9621;48.690;9.466;2024-02-26T05:10:39;4.80;;;3.30;;
18973;SDS011;9621;48.690;9.466;2024-02-26T05:13:07;4.40;;;3.40;;
18973;SDS011;9621;48.690;9.466;2024-02-26T05:15:34;6.47;;;3.70;;
18973;SDS011;9621;48.690;9.466;2024-02-26T05:18:01;5.03;;;3.57;;
18973;SDS011;9621;48.690;9.466;2024-02-26T05:20:28;8.50;;;3.67;;
18973;SDS011;9621;48.690;9.466;2024-02-26T05:22:56;5.83;;;3.93;;
18973;SDS011;9621;48.690;9.466;2024-02-26T05:25:24;6.63;;;3.70;;
18973;SDS011;9621;48.690;9.466;2024-02-26T05:27:51;6.87;;;4.27;;
18973;SDS011;9621;48.690;9.466;2024-02-26T05:30:20;5.47;;;4.17;;
18973;SDS011;9621;48.690;9.466;2024-02-26T05:32:46;6.77;;;5.00;;
18973;SDS011;9621;48.690;9.466;2024-02-26T05:35:14;6.83;;;4.60;;
18973;SDS011;9621;48.690;9.466;2024-02-26T05:37:41;8.57;;;4.30;;
18973;SDS011;9621;48.690;9.466;2024-02-26T05:40:08;8.67;;;4.40;;
18973;SDS011;9621;48.690;9.466;2024-02-26T05:42:36;10.37;;;4.33;;
18973;SDS011;9621;48.690;9.466;2024-02-26T05:45:03;5.33;;;4.23;;
18973;SDS011;9621;48.690;9.466;2024-02-26T05:47:33;6.57;;;4.60;;
18973;SDS011;9621;48.690;9.466;2024-02-26T05:50:00;5.13;;;3.77;;
18973;SDS011;9621;48.690;9.466;2024-02-26T05:52:27;6.30;;;3.53;;
18973;SDS011;9621;48.690;9.466;2024-02-26T05:54:54;4.63;;;3.63;;
18973;SDS011;9621;48.690;9.466;2024-02-26T05:57:21;10.50;;;4.23;;
18973;SDS011;9621;48.690;9.466;2024-02-26T05:59:48;6.03;;;4.20;;
18973;SDS011;9621;48.690;9.466;2024-02-26T06:02:17;5.17;;;3.83;;
18973;SDS011;9621;48.690;9.466;2024-02-26T06:04:46;5.43;;;4.13;;
18973;SDS011;9621;48.690;9.466;2024-02-26T06:07:12;5.40;;;3.73;;
18973;SDS011;9621;48.690;9.466;2024-02-26T06:09:39;6.60;;;4.37;;
18973;SDS011;9621;48.690;9.466;2024-02-26T06:12:06;8.23;;;5.23;;
18973;SDS011;9621;48.690;9.466;2024-02-26T06:14:33;6.13;;;4.00;;
18973;SDS011;9621;48.690;9.466;2024-02-26T06:17:01;8.17;;;3.90;;
18973;SDS011;9621;48.690;9.466;2024-02-26T06:19:28;4.83;;;3.27;;
18973;SDS011;9621;48.690;9.466;2024-02-26T06:21:56;5.20;;;3.43;;
18973;SDS011;9621;48.690;9.466;2024-02-26T06:24:23;6.23;;;3.70;;
18973;SDS011;9621;48.690;9.466;2024-02-26T06:26:50;4.83;;;3.70;;
18973;SDS011;9621;48.690;9.466;2024-02-26T06:29:17;5.87;;;3.73;;
18973;SDS011;9621;48.690;9.466;2024-02-26T06:31:44;4.63;;;3.80;;
18973;SDS011;9621;48.690;9.466;2024-02-26T06:34:13;6.67;;;4.37;;
18973;SDS011;9621;48.690;9.466;2024-02-26T06:36:40;8.37;;;4.70;;
18973;SDS011;9621;48.690;9.466;2024-02-26T06:39:08;7.13;;;4.30;;
18973;SDS011;9621;48.690;9.466;2024-02-26T06:41:35;7.33;;;3.63;;
18973;SDS011;9621;48.690;9.466;2024-02-26T06:44:04;6.63;;;3.23;;
18973;SDS011;9621;48.690;9.466;2024-02-26T06:46:31;5.60;;;3.77;;
18973;SDS011;9621;48.690;9.466;2024-02-26T06:48:58;6.00;;;3.80;;
18973;SDS011;9621;48.690;9.466;2024-02-26T06:51:25;6.40;;;3.70;;
18973;SDS011;9621;48.690;9.466;2024-02-26T06:53:52;5.30;;;3.97;;
18973;SDS011;9621;48.690;9.466;2024-02-26T06:56:20;4.43;;;3.90;;
18973;SDS011;9621;48.690;9.466;2024-02-26T06:58:47;7.67;;;4.10;;
18973;SDS011;9621;48.690;9.466;2024-02-26T07:01:14;7.33;;;3.90;;
18973;SDS011;9621;48.690;9.466;2024-02-26T07:03:41;6.20;;;3.30;;
18973;SDS011;9621;48.690;9.466;2024-02-26T07:06:08;5.33;;;3.47;;
18973;SDS011;9621;48.690;9.466;2024-02-26T07:08:35;3.93;;;3.53;;
18973;SDS011;9621;48.690;9.466;2024-02-26T07:11:02;6.17;;;3.70;;
18973;SDS011;9621;48.690;9.466;2024-02-26T07:13:34;3.77;;;3.37;;
18973;SDS011;9621;48.690;9.466;2024-02-26T07:16:01;4.30;;;3.37;;
18973;SDS011;9621;48.690;9.466;2024-02-26T07:18:28;3.67;;;2.90;;
18973;SDS011;9621;48.690;9.466;2024-02-26T07:20:55;6.10;;;3.30;;
18973;SDS011;9621;48.690;9.466;2024-02-26T07:23:22;5.27;;;3.40;;
18973;SDS011;9621;48.690;9.466;2024-02-26T07:25:49;3.60;;;2.90;;
18973;SDS011;9621;48.690;9.466;2024-02-26T07:28:17;4.97;;;3.30;;
18973;SDS011;9621;48.690;9.466;2024-02-26T07:30:46;7.37;;;3.40;;
18973;SDS011;9621;48.690;9.466;2024-02-26T07:33:14;8.30;;;3.40;;
18973;SDS011;9621;48.690;9.466;2024-02-26T07:35:41;4.33;;;3.13;;
18973;SDS011;9621;48.690;9.466;2024-02-26T07:38:08;3.10;;;2.60;;
18973;SDS011;9621;48.690;9.466;2024-02-26T07:40:35;3.13;;;2.53;;
18973;SDS011;9621;48.690;9.466;2024-02-26T07:43:02;3.17;;;2.37;;
18973;SDS011;9621;48.690;9.466;2024-02-26T07:45:30;4.10;;;3.10;;
18973;SDS011;9621;48.690;9.466;2024-02-26T07:47:59;6.13;;;3.70;;
18973;SDS011;9621;48.690;9.466;2024-02-26T07:50:26;3.70;;;2.57;;
18973;SDS011;9621;48.690;9.466;2024-02-26T07:52:52;7.13;;;3.20;;
18973;SDS011;9621;48.690;9.466;2024-02-26T07:55:29;4.17;;;3.13;;
18973;SDS011;9621;48.690;9.466;2024-02-26T07:57:56;6.63;;;3.47;;
18973;SDS011;9621;48.690;9.466;2024-02-26T08:00:23;6.00;;;3.77;;
18973;SDS011;9621;48.690;9.466;2024-02-26T08:02:50;7.87;;;5.07;;
18973;SDS011;9621;48.690;9.466;2024-02-26T08:05:18;12.47;;;6.80;;
18973;SDS011;9621;48.690;9.466;2024-02-26T08:07:45;17.90;;;9.67;;
18973;SDS011;9621;48.690;9.466;2024-02-26T08:10:12;11.43;;;7.03;;
18973;SDS011;9621;48.690;9.466;2024-02-26T08:12:40;11.03;;;6.63;;
18973;SDS011;9621;48.690;9.466;2024-02-26T08:15:07;10.30;;;6.30;;
18973;SDS011;9621;48.690;9.466;2024-02-26T08:17:36;8.10;;;5.00;;
18973;SDS011;9621;48.690;9.466;2024-02-26T08:20:03;7.60;;;5.10;;
18973;SDS011;9621;48.690;9.466;2024-02-26T08:22:32;8.77;;;5.00;;
18973;SDS011;9621;48.690;9.466;2024-02-26T08:24:59;6.40;;;3.80;;
18973;SDS011;9621;48.690;9.466;2024-02-26T08:27:30;6.57;;;3.70;;
18973;SDS011;9621;48.690;9.466;2024-02-26T08:29:57;6.37;;;3.73;;
18973;SDS011;9621;48.690;9.466;2024-02-26T08:32:26;8.17;;;3.60;;
18973;SDS011;9621;48.690;9.466;2024-02-26T08:34:53;4.70;;;3.70;;
18973;SDS011;9621;48.690;9.466;2024-02-26T08:37:20;5.10;;;3.90;;
18973;SDS011;9621;48.690;9.466;2024-02-26T08:39:49;9.95;;;4.97;;
18973;SDS011;9621;48.690;9.466;2024-02-26T08:42:16;8.23;;;4.80;;
18973;SDS011;9621;48.690;9.466;2024-02-26T08:44:43;9.50;;;4.97;;
18973;SDS011;9621;48.690;9.466;2024-02-26T08:47:10;5.80;;;4.07;;
18973;SDS011;9621;48.690;9.466;2024-02-26T08:49:40;5.43;;;4.07;;
18973;SDS011;9621;48.690;9.466;2024-02-26T08:52:09;6.17;;;4.27;;
18973;SDS011;9621;48.690;9.466;2024-02-26T08:54:35;7.50;;;4.20;;
18973;SDS011;9621;48.690;9.466;2024-02-26T08:57:04;5.43;;;4.07;;
18973;SDS011;9621;48.690;9.466;2024-02-26T08:59:32;9.03;;;5.20;;
18973;SDS011;9621;48.690;9.466;2024-02-26T09:01:59;7.37;;;4.70;;
18973;SDS011;9621;48.690;9.466;2024-02-26T09:04:25;7.05;;;4.75;;
18973;SDS011;9621;48.690;9.466;2024-02-26T09:06:53;6.50;;;4.55;;
18973;SDS011;9621;48.690;9.466;2024-02-26T09:09:20;9.53;;;4.53;;
18973;SDS011;9621;48.690;9.466;2024-02-26T09:11:50;9.70;;;4.60;;
18973;SDS011;9621;48.690;9.466;2024-02-26T09:14:18;7.97;;;4.73;;
18973;SDS011;9621;48.690;9.466;2024-02-26T09:16:45;8.07;;;4.47;;
18973;SDS011;9621;48.690;9.466;2024-02-26T09:19:13;10.30;;;4.60;;
18973;SDS011;9621;48.690;9.466;2024-02-26T09:21:42;7.93;;;4.57;;
18973;SDS011;9621;48.690;9.466;2024-02-26T09:24:09;6.05;;;4.70;;
18973;SDS011;9621;48.690;9.466;2024-02-26T09:26:36;6.53;;;4.45;;
18973;SDS011;9621;48.690;9.466;2024-02-26T09:29:03;6.43;;;4.30;;
18973;SDS011;9621;48.690;9.466;2024-02-26T09:31:32;7.37;;;4.50;;
18973;SDS011;9621;48.690;9.466;2024-02-26T09:34:00;10.18;;;4.57;;
18973;SDS011;9621;48.690;9.466;2024-02-26T09:36:27;9.43;;;4.22;;
18973;SDS011;9621;48.690;9.466;2024-02-26T09:38:54;12.85;;;4.72;;
18973;SDS011;9621;48.690;9.466;2024-02-26T09:41:21;7.47;;;4.40;;
18973;SDS011;9621;48.690;9.466;2024-02-26T09:43:48;8.10;;;4.45;;
18973;SDS011;9621;48.690;9.466;2024-02-26T09:46:16;8.25;;;4.53;;
18973;SDS011;9621;48.690;9.466;2024-02-26T09:48:47;6.07;;;4.53;;
18973;SDS011;9621;48.690;9.466;2024-02-26T09:51:14;6.47;;;4.80;;
18973;SDS011;9621;48.690;9.466;2024-02-26T09:53:43;6.65;;;4.57;;
18973;SDS011;9621;48.690;9.466;2024-02-26T09:56:11;7.60;;;4.35;;
18973;SDS011;9621;48.690;9.466;2024-02-26T09:58:39;9.27;;;4.63;;
18973;SDS011;9621;48.690;9.466;2024-02-26T10:01:10;7.97;;;4.50;;
18973;SDS011;9621;48.690;9.466;2024-02-26T10:03:42;6.32;;;4.50;;
18973;SDS011;9621;48.690;9.466;2024-02-26T10:06:12;6.80;;;4.40;;
18973;SDS011;9621;48.690;9.466;2024-02-26T10:08:40;5.82;;;4.30;;
18973;SDS011;9621;48.690;9.466;2024-02-26T10:11:08;8.20;;;3.90;;
18973;SDS011;9621;48.690;9.466;2024-02-26T10:13:37;9.73;;;4.15;;
18973;SDS011;9621;48.690;9.466;2024-02-26T10:16:04;8.95;;;4.07;;
18973;SDS011;9621;48.690;9.466;2024-02-26T10:18:44;5.78;;;3.97;;
18973;SDS011;9621;48.690;9.466;2024-02-26T10:21:13;5.55;;;3.65;;
18973;SDS011;9621;48.690;9.466;2024-02-26T10:23:42;7.90;;;4.35;;
18973;SDS011;9621;48.690;9.466;2024-02-26T10:26:10;7.40;;;4.18;;
18973;SDS011;9621;48.690;9.466;2024-02-26T10:28:38;7.95;;;4.53;;
18973;SDS011;9621;48.690;9.466;2024-02-26T10:31:06;6.20;;;4.00;;
18973;SDS011;9621;48.690;9.466;2024-02-26T10:33:33;6.35;;;4.30;;
18973;SDS011;9621;48.690;9.466;2024-02-26T10:36:01;4.43;;;3.30;;
18973;SDS011;9621;48.690;9.466;2024-02-26T10:38:31;6.57;;;4.07;;
18973;SDS011;9621;48.690;9.466;2024-02-26T10:40:59;5.63;;;3.55;;
18973;SDS011;9621;48.690;9.466;2024-02-26T10:43:26;5.00;;;3.38;;
18973;SDS011;9621;48.690;9.466;2024-02-26T10:45:54;5.85;;;3.00;;
18973;SDS011;9621;48.690;9.466;2024-02-26T10:48:21;3.65;;;2.50;;
18973;SDS011;9621;48.690;9.466;2024-02-26T10:50:49;3.83;;;2.88;;
18973;SDS011;9621;48.690;9.466;2024-02-26T10:53:19;4.05;;;2.78;;
18973;SDS011;9621;48.690;9.466;2024-02-26T10:55:50;4.63;;;2.80;;
18973;SDS011;9621;48.690;9.466;2024-02-26T10:58:21;5.32;;;2.67;;
18973;SDS011;9621;48.690;9.466;2024-02-26T11:00:50;2.40;;;2.10;;
18973;SDS011;9621;48.690;9.466;2024-02-26T11:03:18;3.05;;;2.03;;
18973;SDS011;9621;48.690;9.466;2024-02-26T11:05:47;3.72;;;2.20;;
18973;SDS011;9621;48.690;9.466;2024-02-26T11:08:15;4.05;;;2.08;;
18973;SDS011;9621;48.690;9.466;2024-02-26T11:10:44;4.32;;;2.08;;
18973;SDS011;9621;48.690;9.466;2024-02-26T11:13:15;4.25;;;2.20;;
18973;SDS011;9621;48.690;9.466;2024-02-26T11:15:45;2.95;;;1.83;;
18973;SDS011;9621;48.690;9.466;2024-02-26T11:18:14;3.00;;;1.92;;
18973;SDS011;9621;48.690;9.466;2024-02-26T11:20:41;4.47;;;2.20;;
18973;SDS011;9621;48.690;9.466;2024-02-26T11:23:09;2.83;;;2.03;;
18973;SDS011;9621;48.690;9.466;2024-02-26T11:25:36;2.88;;;1.75;;
18973;SDS011;9621;48.690;9.466;2024-02-26T11:28:05;2.85;;;2.00;;
18973;SDS011;9621;48.690;9.466;2024-02-26T11:30:36;2.15;;;1.67;;
18973;SDS011;9621;48.690;9.466;2024-02-26T11:33:08;3.55;;;1.77;;
18973;SDS011;9621;48.690;9.466;2024-02-26T11:35:37;2.33;;;1.70;;
18973;SDS011;9621;48.690;9.466;2024-02-26T11:38:05;3.80;;;1.70;;
18973;SDS011;9621;48.690;9.466;2024-02-26T11:40:32;3.53;;;1.90;;
18973;SDS011;9621;48.690;9.466;2024-02-26T11:43:03;2.55;;;1.70;;
18973;SDS011;9621;48.690;9.466;2024-02-26T11:45:51;1.65;;;1.42;;
18973;SDS011;9621;48.690;9.466;2024-02-26T11:48:24;2.53;;;1.67;;
18973;SDS011;9621;48.690;9.466;2024-02-26T11:50:52;2.50;;;1.92;;
18973;SDS011;9621;48.690;9.466;2024-02-26T11:53:20;2.33;;;1.63;;
18973;SDS011;9621;48.690;9.466;2024-02-26T11:55:48;2.25;;;1.63;;
18973;SDS011;9621;48.690;9.466;2024-02-26T11:58:58;2.33;;;1.70;;
18973;SDS011;9621;48.690;9.466;2024-02-26T12:01:40;2.38;;;1.60;;
18973;SDS011;9621;48.690;9.466;2024-02-26T12:04:11;1.73;;;1.60;;
18973;SDS011;9621;48.690;9.466;2024-02-26T12:06:45;3.58;;;1.85;;
18973;SDS011;9621;48.690;9.466;2024-02-26T12:12:02;2.72;;;1.77;;
18973;SDS011;9621;48.690;9.466;2024-02-26T12:14:32;6.00;;;2.17;;
18973;SDS011;9621;48.690;9.466;2024-02-26T12:17:03;2.92;;;1.90;;
18973;SDS011;9621;48.690;9.466;2024-02-26T12:19:32;3.33;;;1.88;;
18973;SDS011;9621;48.690;9.466;2024-02-26T12:21:59;3.95;;;1.80;;
18973;SDS011;9621;48.690;9.466;2024-02-26T12:24:26;4.13;;;1.50;;
18973;SDS011;9621;48.690;9.466;2024-02-26T12:26:53;2.08;;;1.63;;
18973;SDS011;9621;48.690;9.466;2024-02-26T12:29:21;2.70;;;1.98;;
18973;SDS011;9621;48.690;9.466;2024-02-26T12:31:48;4.20;;;2.00;;
18973;SDS011;9621;48.690;9.466;2024-02-26T12:34:16;3.97;;;2.00;;
18973;SDS011;9621;48.690;9.466;2024-02-26T12:36:43;2.10;;;1.80;;
18973;SDS011;9621;48.690;9.466;2024-02-26T12:39:10;2.00;;;1.80;;
18973;SDS011;9621;48.690;9.466;2024-02-26T12:41:39;3.42;;;2.10;;
18973;SDS011;9621;48.690;9.466;2024-02-26T12:44:09;2.97;;;1.70;;
18973;SDS011;9621;48.690;9.466;2024-02-26T12:46:37;3.60;;;2.22;;
18973;SDS011;9621;48.690;9.466;2024-02-26T12:49:04;3.67;;;2.47;;
18973;SDS011;9621;48.690;9.466;2024-02-26T12:51:32;3.80;;;2.35;;
18973;SDS011;9621;48.690;9.466;2024-02-26T12:54:00;3.05;;;2.00;;
18973;SDS011;9621;48.690;9.466;2024-02-26T12:56:28;7.07;;;2.20;;
18973;SDS011;9621;48.690;9.466;2024-02-26T12:58:55;4.47;;;2.05;;
18973;SDS011;9621;48.690;9.466;2024-02-26T13:01:23;3.08;;;2.03;;
18973;SDS011;9621;48.690;9.466;2024-02-26T13:03:54;2.90;;;2.13;;
18973;SDS011;9621;48.690;9.466;2024-02-26T13:06:21;4.38;;;2.08;;
18973;SDS011;9621;48.690;9.466;2024-02-26T13:08:55;3.67;;;2.10;;
18973;SDS011;9621;48.690;9.466;2024-02-26T13:11:24;3.45;;;1.95;;
18973;SDS011;9621;48.690;9.466;2024-02-26T13:13:51;3.70;;;2.10;;
18973;SDS011;9621;48.690;9.466;2024-02-26T13:16:19;4.78;;;2.10;;
18973;SDS011;9621;48.690;9.466;2024-02-26T13:18:50;3.58;;;2.10;;
18973;SDS011;9621;48.690;9.466;2024-02-26T13:21:17;4.85;;;1.88;;
18973;SDS011;9621;48.690;9.466;2024-02-26T13:23:48;2.80;;;1.98;;
18973;SDS011;9621;48.690;9.466;2024-02-26T13:26:17;5.50;;;2.38;;
18973;SDS011;9621;48.690;9.466;2024-02-26T13:28:58;5.75;;;2.30;;
18973;SDS011;9621;48.690;9.466;2024-02-26T13:31:26;3.55;;;2.45;;
18973;SDS011;9621;48.690;9.466;2024-02-26T13:33:53;3.75;;;2.13;;
18973;SDS011;9621;48.690;9.466;2024-02-26T13:36:21;3.97;;;2.75;;
18973;SDS011;9621;48.690;9.466;2024-02-26T13:38:51;2.50;;;2.30;;
18973;SDS011;9621;48.690;9.466;2024-02-26T13:41:21;3.90;;;2.22;;
18973;SDS011;9621;48.690;9.466;2024-02-26T13:43:48;3.70;;;2.45;;
18973;SDS011;9621;48.690;9.466;2024-02-26T13:46:15;3.63;;;2.60;;
18973;SDS011;9621;48.690;9.466;2024-02-26T13:48:42;3.78;;;2.28;;
18973;SDS011;9621;48.690;9.466;2024-02-26T13:51:09;3.35;;;2.38;;
18973;SDS011;9621;48.690;9.466;2024-02-26T13:53:36;3.80;;;2.30;;
18973;SDS011;9621;48.690;9.466;2024-02-26T13:56:03;4.35;;;2.55;;
18973;SDS011;9621;48.690;9.466;2024-02-26T13:58:33;2.90;;;2.03;;
18973;SDS011;9621;48.690;9.466;2024-02-26T14:01:00;4.63;;;2.50;;
18973;SDS011;9621;48.690;9.466;2024-02-26T14:03:28;4.57;;;2.70;;
18973;SDS011;9621;48.690;9.466;2024-02-26T14:05:55;3.13;;;2.30;;
18973;SDS011;9621;48.690;9.466;2024-02-26T14:08:23;6.88;;;2.20;;
18973;SDS011;9621;48.690;9.466;2024-02-26T14:10:50;4.90;;;2.50;;
18973;SDS011;9621;48.690;9.466;2024-02-26T14:13:17;3.97;;;2.55;;
18973;SDS011;9621;48.690;9.466;2024-02-26T14:15:46;3.80;;;2.50;;
18973;SDS011;9621;48.690;9.466;2024-02-26T14:18:13;3.00;;;2.22;;
18973;SDS011;9621;48.690;9.466;2024-02-26T14:20:39;4.65;;;2.70;;
18973;SDS011;9621;48.690;9.466;2024-02-26T14:23:06;3.05;;;2.20;;
18973;SDS011;9621;48.690;9.466;2024-02-26T14:25:33;4.22;;;2.20;;
18973;SDS011;9621;48.690;9.466;2024-02-26T14:28:01;3.42;;;2.50;;
18973;SDS011;9621;48.690;9.466;2024-02-26T14:30:28;4.10;;;2.30;;
18973;SDS011;9621;48.690;9.466;2024-02-26T14:32:57;6.80;;;2.72;;
18973;SDS011;9621;48.690;9.466;2024-02-26T14:35:24;5.78;;;2.38;;
18973;SDS011;9621;48.690;9.466;2024-02-26T14:37:51;5.25;;;2.42;;
18973;SDS011;9621;48.690;9.466;2024-02-26T14:40:19;3.17;;;1.95;;
18973;SDS011;9621;48.690;9.466;2024-02-26T14:42:46;2.60;;;2.25;;
18973;SDS011;9621;48.690;9.466;2024-02-26T14:45:13;3.95;;;2.15;;
18973;SDS011;9621;48.690;9.466;2024-02-26T14:47:41;6.13;;;2.90;;
18973;SDS011;9621;48.690;9.466;2024-02-26T14:50:10;8.48;;;2.42;;
18973;SDS011;9621;48.690;9.466;2024-02-26T14:52:37;8.65;;;2.50;;
18973;SDS011;9621;48.690;9.466;2024-02-26T14:55:04;4.25;;;2.45;;
18973;SDS011;9621;48.690;9.466;2024-02-26T14:57:32;4.40;;;2.53;;
18973;SDS011;9621;48.690;9.466;2024-02-26T14:59:59;4.28;;;2.47;;
18973;SDS011;9621;48.690;9.466;2024-02-26T15:02:26;3.30;;;2.53;;
18973;SDS011;9621;48.690;9.466;2024-02-26T15:04:53;4.20;;;2.22;;
18973;SDS011;9621;48.690;9.466;2024-02-26T15:07:22;3.45;;;2.40;;